Terminal Aerodrome Forecast
Issued by NWS

Home | Current Version | Previous Version | Text Only | Print | Product List | Glossary On
Versions: 1 2 3 4 5 6 7 8 9 10 11 12 13
322
FTUS45 KRIW 072330
TAFRKS
TAF
KRKS 072330Z 0800/0824 27024G32KT P6SM SCT250
     FM080400 26018KT P6SM FEW250
     FM081200 25011KT P6SM SCT200
     FM081900 25013G22KT P6SM SCT250=

USA.gov is the U.S. government's official web portal to all federal, state and local government web resources and services.